Time;durP1;ratioP1;P1;durP2;ratioP2;P2;SDS_P1;SDS_P2;PMS_P1;PMS_P2;Temp;Humidity;BMP_temperature;BMP_pressure;BME280_temperature;BME280_humidity;BME280_pressure;Samples;Min_cycle;Max_cycle;Signal;HPM_P1;HPM_P2
2022/06/27 00:00:39;;;;;;;3.35;1.30;;;20.40;93.00;;;;;;5096374;28;20525;-76
2022/06/27 00:03:05;;;;;;;1.90;0.98;;;20.40;92.80;;;;;;5096482;28;20052;-76
2022/06/27 00:05:31;;;;;;;3.30;1.30;;;20.50;92.70;;;;;;5096347;28;20413;-76
2022/06/27 00:07:56;;;;;;;2.88;1.00;;;20.50;92.50;;;;;;5096268;28;20383;-76
2022/06/27 00:10:22;;;;;;;4.35;1.70;;;20.50;92.40;;;;;;5096038;28;20077;-76
2022/06/27 00:12:47;;;;;;;2.78;1.25;;;20.50;92.10;;;;;;5096393;28;20028;-76
2022/06/27 00:15:13;;;;;;;3.40;1.00;;;20.40;92.30;;;;;;5096321;28;20352;-76
2022/06/27 00:17:39;;;;;;;3.97;1.10;;;20.40;92.40;;;;;;5096249;28;20026;-76
2022/06/27 00:20:06;;;;;;;2.30;1.00;;;20.40;92.30;;;;;;5096269;28;20027;-76
2022/06/27 00:22:31;;;;;;;3.00;1.02;;;20.40;92.20;;;;;;5096085;28;20090;-76
2022/06/27 00:24:57;;;;;;;2.60;0.80;;;20.50;92.10;;;;;;5096152;28;20024;-76
2022/06/27 00:27:23;;;;;;;3.55;0.80;;;20.50;92.00;;;;;;5095867;28;20052;-76
2022/06/27 00:29:48;;;;;;;2.15;0.80;;;20.50;91.90;;;;;;5095927;28;20039;-76
2022/06/27 00:32:16;;;;;;;4.30;1.08;;;20.50;91.80;;;;;;5096022;28;20027;-76
2022/06/27 00:34:41;;;;;;;4.25;1.00;;;20.60;91.70;;;;;;5096060;28;20109;-76
2022/06/27 00:37:07;;;;;;;3.05;1.00;;;20.60;91.60;;;;;;5095349;28;20017;-76
2022/06/27 00:39:33;;;;;;;3.30;1.10;;;20.60;91.60;;;;;;5095959;28;20112;-76
2022/06/27 00:41:58;;;;;;;1.83;0.85;;;20.60;91.50;;;;;;5095905;28;20028;-76
2022/06/27 00:44:37;;;;;;;2.40;0.90;;;20.70;91.50;;;;;;5095094;28;20426;-76
2022/06/27 00:47:05;;;;;;;3.85;0.82;;;20.70;91.40;;;;;;5095399;28;20506;-76
2022/06/27 00:49:31;;;;;;;3.65;0.82;;;20.70;91.30;;;;;;5094970;28;20067;-76
2022/06/27 00:51:56;;;;;;;5.25;1.00;;;20.70;91.30;;;;;;5095611;28;20031;-76
2022/06/27 00:54:23;;;;;;;3.05;1.00;;;20.70;91.20;;;;;;5095574;28;20375;-76
2022/06/27 00:56:50;;;;;;;2.58;0.82;;;20.70;91.50;;;;;;5095533;28;20383;-76
2022/06/27 00:59:16;;;;;;;3.90;0.95;;;20.70;91.20;;;;;;5095311;28;20047;-76
2022/06/27 01:01:41;;;;;;;2.17;0.95;;;20.80;91.50;;;;;;5095386;28;20059;-76
2022/06/27 01:04:07;;;;;;;2.88;0.63;;;20.80;91.10;;;;;;5095528;28;20020;-76
2022/06/27 01:06:33;;;;;;;3.97;1.00;;;20.70;90.90;;;;;;5095251;28;20345;-76
2022/06/27 01:08:59;;;;;;;1.60;0.68;;;20.70;90.90;;;;;;5094843;28;20059;-76
2022/06/27 01:11:25;;;;;;;3.78;0.82;;;20.70;90.90;;;;;;5095088;28;20027;-76
2022/06/27 01:13:51;;;;;;;2.72;1.25;;;20.80;90.90;;;;;;5094898;28;20050;-76
2022/06/27 01:16:18;;;;;;;2.45;0.80;;;20.80;90.90;;;;;;5095224;28;20382;-76
2022/06/27 01:18:44;;;;;;;2.05;0.80;;;20.80;90.90;;;;;;5094956;28;20170;-76
2022/06/27 01:21:20;;;;;;;2.78;0.77;;;20.80;90.90;;;;;;5094972;28;20485;-76
2022/06/27 01:23:46;;;;;;;4.15;1.05;;;20.80;90.90;;;;;;5095089;28;20099;-76
2022/06/27 01:26:13;;;;;;;3.25;1.73;;;20.70;91.10;;;;;;5094895;28;20020;-76
2022/06/27 01:28:38;;;;;;;3.05;1.27;;;20.60;91.20;;;;;;5094700;28;20135;-76
2022/06/27 01:31:04;;;;;;;2.95;0.90;;;20.50;91.30;;;;;;5094679;28;20123;-76
2022/06/27 01:33:29;;;;;;;1.92;0.90;;;20.60;91.30;;;;;;5094614;28;20024;-76
2022/06/27 01:36:41;;;;;;;6.05;1.38;;;20.60;91.30;;;;;;5094543;28;20024;-76
2022/06/27 01:38:41;;;;;;;5.22;1.77;;;20.60;91.20;;;;;;5094264;28;20103;-76
2022/06/27 01:41:06;;;;;;;3.00;1.17;;;20.60;91.10;;;;;;5094416;28;20427;-76
2022/06/27 01:43:33;;;;;;;2.38;0.80;;;20.60;91.00;;;;;;5094454;28;20016;-76
2022/06/27 01:45:59;;;;;;;3.03;0.90;;;20.70;91.00;;;;;;5094444;28;20024;-76
2022/06/27 01:48:25;;;;;;;2.92;0.90;;;20.70;91.00;;;;;;5094024;28;20036;-76
2022/06/27 01:50:54;;;;;;;2.72;1.20;;;20.70;91.00;;;;;;5094316;28;20375;-76
2022/06/27 01:53:20;;;;;;;2.13;0.90;;;20.70;91.10;;;;;;5093922;28;20024;-76
2022/06/27 01:55:46;;;;;;;3.03;1.25;;;20.70;91.10;;;;;;5093885;28;20024;-76
2022/06/27 01:58:12;;;;;;;2.25;1.00;;;20.70;91.10;;;;;;5093631;28;20032;-76
2022/06/27 02:00:37;;;;;;;3.92;1.00;;;20.70;91.20;;;;;;5094043;28;20024;-76
2022/06/27 02:03:03;;;;;;;2.15;1.10;;;20.70;91.20;;;;;;5094030;28;20103;-76
2022/06/27 02:05:29;;;;;;;3.10;0.80;;;20.70;91.30;;;;;;5094251;28;20023;-76
2022/06/27 02:07:58;;;;;;;2.90;1.35;;;20.70;91.30;;;;;;5094233;28;20056;-76
2022/06/27 02:10:23;;;;;;;2.45;1.23;;;20.70;91.20;;;;;;5094000;28;20058;-76
2022/06/27 02:12:50;;;;;;;3.35;1.02;;;20.70;91.30;;;;;;5094006;28;20463;-76
2022/06/27 02:15:16;;;;;;;2.65;0.90;;;20.70;91.20;;;;;;5093488;28;20031;-76
2022/06/27 02:17:42;;;;;;;2.45;1.20;;;20.70;91.20;;;;;;5094115;28;20340;-76
2022/06/27 02:20:08;;;;;;;3.83;1.45;;;20.70;91.10;;;;;;5094040;28;20089;-76
2022/06/27 02:22:34;;;;;;;3.90;1.38;;;20.70;91.20;;;;;;5093785;28;20407;-76
2022/06/27 02:24:59;;;;;;;2.80;1.05;;;20.60;91.30;;;;;;5093989;28;20059;-76
2022/06/27 02:27:28;;;;;;;2.85;1.20;;;20.60;91.50;;;;;;5093372;28;20027;-76
2022/06/27 02:29:54;;;;;;;3.58;1.30;;;20.50;91.60;;;;;;5093497;28;20123;-76
2022/06/27 02:32:20;;;;;;;2.67;0.88;;;20.50;91.60;;;;;;5093941;28;20055;-76
2022/06/27 02:34:48;;;;;;;2.72;0.90;;;20.50;91.60;;;;;;5093872;28;20099;-76
2022/06/27 02:37:14;;;;;;;2.42;1.23;;;20.50;91.60;;;;;;5093455;28;20024;-76
2022/06/27 02:39:43;;;;;;;1.98;1.00;;;20.60;91.60;;;;;;5093164;28;20069;-76
2022/06/27 02:42:10;;;;;;;3.95;1.58;;;20.60;91.60;;;;;;5093704;28;20348;-76
2022/06/27 02:44:36;;;;;;;3.15;1.38;;;20.60;91.60;;;;;;5093436;28;20078;-76
2022/06/27 02:47:02;;;;;;;1.88;0.82;;;20.60;91.60;;;;;;5093349;28;20024;-76
2022/06/27 02:49:28;;;;;;;3.88;1.27;;;20.50;91.60;;;;;;5093214;28;20074;-76
2022/06/27 02:52:30;;;;;;;4.38;1.80;;;20.60;91.60;;;;;;5093138;28;20024;-76
2022/06/27 02:55:03;;;;;;;3.45;1.60;;;20.60;91.60;;;;;;5060881;28;20068;-76
2022/06/27 02:57:48;;;;;;;4.45;1.60;;;20.50;91.60;;;;;;5093238;28;20027;-76
2022/06/27 03:00:16;;;;;;;3.28;1.70;;;20.50;91.70;;;;;;5093572;28;20028;-76
2022/06/27 03:02:42;;;;;;;3.85;1.45;;;20.50;91.70;;;;;;5093174;28;20378;-75
2022/06/27 03:05:08;;;;;;;2.78;1.27;;;20.50;91.70;;;;;;5093402;28;20032;-76
2022/06/27 03:07:41;;;;;;;3.58;1.25;;;20.50;91.70;;;;;;5093828;28;20027;-76
2022/06/27 03:10:09;;;;;;;3.25;1.65;;;20.60;91.80;;;;;;5097322;28;20036;-76
2022/06/27 03:12:35;;;;;;;3.42;1.83;;;20.50;91.80;;;;;;5097357;28;20081;-76
2022/06/27 03:15:00;;;;;;;6.80;2.20;;;20.50;91.80;;;;;;5097446;28;20028;-76
2022/06/27 03:17:26;;;;;;;4.68;1.88;;;20.50;91.90;;;;;;5097431;28;20028;-76
2022/06/27 03:19:52;;;;;;;4.05;1.83;;;20.50;92.00;;;;;;5097122;28;20031;-76
2022/06/27 03:22:18;;;;;;;4.13;2.53;;;20.50;92.00;;;;;;5097073;28;20048;-76
2022/06/27 03:24:44;;;;;;;3.97;2.33;;;20.40;92.10;;;;;;5096871;28;20097;-76
2022/06/27 03:27:10;;;;;;;3.28;2.45;;;20.40;92.30;;;;;;5097147;28;20020;-76
2022/06/27 03:29:39;;;;;;;6.38;2.47;;;20.30;92.60;;;;;;5096777;28;20447;-76
2022/06/27 03:32:05;;;;;;;6.45;2.33;;;20.30;92.60;;;;;;5097047;28;20048;-76
2022/06/27 03:34:31;;;;;;;7.93;2.45;;;20.30;92.60;;;;;;5096790;28;20020;-76
2022/06/27 03:36:57;;;;;;;3.85;2.67;;;20.40;92.60;;;;;;5096739;28;20482;-76
2022/06/27 03:39:23;;;;;;;4.10;2.45;;;20.40;92.70;;;;;;5096860;28;20028;-76
2022/06/27 03:41:49;;;;;;;5.05;2.78;;;20.40;92.70;;;;;;5096666;28;20027;-76
2022/06/27 03:44:15;;;;;;;6.45;3.10;;;20.40;92.70;;;;;;5096888;28;20013;-76
2022/06/27 03:46:40;;;;;;;4.50;2.85;;;20.40;92.70;;;;;;5096909;28;20046;-76
2022/06/27 03:51:50;;;;;;;7.90;4.28;;;20.40;92.70;;;;;;5096670;28;20074;-75
2022/06/27 03:54:16;;;;;;;5.53;3.60;;;20.40;92.80;;;;;;5096457;28;20067;-76
2022/06/27 03:56:42;;;;;;;6.65;3.47;;;20.30;93.10;;;;;;5096463;28;20055;-76
2022/06/27 03:59:07;;;;;;;5.30;3.53;;;20.30;93.20;;;;;;5096628;28;20028;-76
2022/06/27 04:01:33;;;;;;;5.22;3.50;;;20.30;93.20;;;;;;5096620;28;20016;-76
2022/06/27 04:03:59;;;;;;;6.45;3.28;;;20.30;93.30;;;;;;5096316;28;20478;-76
2022/06/27 04:06:24;;;;;;;8.43;4.95;;;20.30;93.30;;;;;;5096481;28;20447;-76
2022/06/27 04:08:50;;;;;;;4.95;3.13;;;20.30;93.40;;;;;;5096112;28;20088;-76
2022/06/27 04:11:16;;;;;;;5.25;3.78;;;20.30;93.50;;;;;;5096449;28;20036;-76
2022/06/27 04:13:41;;;;;;;5.43;3.58;;;20.30;93.50;;;;;;5096364;28;20109;-76
2022/06/27 04:16:07;;;;;;;8.25;4.20;;;20.30;93.50;;;;;;5095988;28;20356;-76
2022/06/27 04:18:33;;;;;;;4.97;3.33;;;20.40;93.60;;;;;;5095700;28;20020;-76
2022/06/27 04:20:59;;;;;;;3.92;3.35;;;20.40;93.60;;;;;;5095486;28;20032;-76
2022/06/27 04:23:24;;;;;;;4.97;3.28;;;20.40;93.60;;;;;;5096235;28;20020;-76
2022/06/27 04:25:50;;;;;;;5.63;3.67;;;20.40;93.60;;;;;;5095924;28;20020;-76
2022/06/27 04:28:15;;;;;;;5.95;3.65;;;20.40;93.70;;;;;;5095945;28;20429;-75
2022/06/27 04:30:41;;;;;;;5.22;3.85;;;20.40;93.70;;;;;;5095586;28;20541;-76
2022/06/27 04:33:10;;;;;;;6.13;3.20;;;20.40;93.80;;;;;;5096052;28;20024;-75
2022/06/27 04:35:36;;;;;;;5.78;4.00;;;20.40;93.90;;;;;;5095701;28;20416;-75
2022/06/27 04:38:02;;;;;;;6.45;4.18;;;20.30;93.90;;;;;;5095924;28;20050;-76
2022/06/27 04:40:29;;;;;;;4.93;3.33;;;20.30;94.10;;;;;;5095603;28;20016;-76
2022/06/27 04:42:56;;;;;;;7.50;5.28;;;20.30;94.10;;;;;;5095268;28;20031;-76
2022/06/27 04:45:22;;;;;;;9.88;5.05;;;20.30;94.60;;;;;;5095338;28;20029;-76
2022/06/27 04:47:48;;;;;;;10.20;5.68;;;20.30;94.60;;;;;;5095328;28;20025;-76
2022/06/27 04:50:18;;;;;;;9.18;5.45;;;20.20;94.80;;;;;;5094891;28;20048;-75
2022/06/27 04:52:45;;;;;;;7.70;4.75;;;20.20;94.90;;;;;;5095540;28;20024;-76
2022/06/27 04:55:12;;;;;;;9.35;6.03;;;20.20;95.30;;;;;;5094808;28;20471;-75
2022/06/27 04:57:40;;;;;;;7.20;5.07;;;20.20;95.50;;;;;;5095387;28;20024;-76
2022/06/27 05:00:08;;;;;;;7.63;4.13;;;20.20;95.30;;;;;;5095333;28;20056;-76
2022/06/27 05:02:34;;;;;;;5.50;4.10;;;20.30;95.30;;;;;;5095374;28;20099;-76
2022/06/27 05:05:00;;;;;;;7.65;4.00;;;20.30;95.20;;;;;;5095118;28;20099;-76
2022/06/27 05:07:25;;;;;;;5.97;4.03;;;20.40;95.10;;;;;;5094918;28;20023;-76
2022/06/27 05:09:56;;;;;;;9.32;6.57;;;20.40;95.10;;;;;;5094938;28;20118;-76
2022/06/27 05:12:22;;;;;;;10.43;6.70;;;20.40;95.30;;;;;;5094873;28;20074;-76
2022/06/27 05:14:48;;;;;;;12.10;6.30;;;20.30;95.60;;;;;;5095084;28;20028;-76
2022/06/27 05:17:13;;;;;;;8.75;4.93;;;20.20;96.00;;;;;;5094880;28;20046;-76
2022/06/27 05:19:39;;;;;;;8.82;5.40;;;20.10;96.00;;;;;;5094561;28;20115;-76
2022/06/27 05:22:04;;;;;;;8.52;6.10;;;20.10;96.00;;;;;;5094609;28;20027;-76
2022/06/27 05:24:30;;;;;;;8.80;6.18;;;20.10;96.40;;;;;;5095114;28;20054;-76
2022/06/27 05:26:56;;;;;;;9.52;6.20;;;20.10;96.30;;;;;;5094557;28;20078;-76
2022/06/27 05:29:22;;;;;;;8.35;6.53;;;20.00;96.60;;;;;;5094711;28;20028;-76
2022/06/27 05:31:47;;;;;;;8.73;6.60;;;19.90;96.70;;;;;;5093418;28;20024;-76
2022/06/27 05:34:13;;;;;;;10.77;7.18;;;19.90;96.80;;;;;;5094734;28;20111;-76
2022/06/27 05:36:39;;;;;;;8.60;6.70;;;19.80;97.00;;;;;;5094278;28;20452;-76
2022/06/27 05:39:05;;;;;;;5.95;4.38;;;19.70;97.20;;;;;;5094551;28;20368;-76
2022/06/27 05:41:31;;;;;;;8.25;6.07;;;19.70;97.20;;;;;;5094394;28;20024;-76
2022/06/27 05:43:57;;;;;;;7.72;5.30;;;19.70;97.20;;;;;;5094592;28;20068;-76
2022/06/27 05:46:23;;;;;;;8.30;5.35;;;19.70;97.30;;;;;;5094492;28;20455;-75
2022/06/27 05:48:50;;;;;;;11.57;5.55;;;19.70;97.30;;;;;;5094001;28;20048;-75
2022/06/27 05:51:15;;;;;;;7.25;5.40;;;19.80;97.20;;;;;;5094007;28;20111;-75
2022/06/27 05:53:43;;;;;;;11.30;6.70;;;19.90;97.10;;;;;;5094012;28;20099;-75
2022/06/27 05:56:10;;;;;;;7.30;5.07;;;19.90;97.10;;;;;;5094290;28;20032;-75
2022/06/27 05:58:37;;;;;;;8.80;5.45;;;19.90;97.20;;;;;;5093978;28;20020;-75
2022/06/27 06:01:04;;;;;;;9.35;5.35;;;19.90;97.20;;;;;;5094005;28;20479;-75
2022/06/27 06:03:31;;;;;;;6.30;4.53;;;19.80;97.30;;;;;;5094000;28;20050;-75
2022/06/27 06:05:57;;;;;;;7.32;4.60;;;19.80;97.40;;;;;;5093946;28;20039;-75
2022/06/27 06:08:25;;;;;;;8.68;5.95;;;19.90;97.40;;;;;;5093878;28;20379;-75
2022/06/27 06:10:51;;;;;;;5.75;3.22;;;20.00;97.30;;;;;;5093414;28;20127;-76
2022/06/27 06:13:17;;;;;;;6.80;4.93;;;20.00;97.20;;;;;;5093390;28;20115;-76
2022/06/27 06:15:42;;;;;;;6.10;4.43;;;20.10;97.00;;;;;;5093781;28;20099;-76
2022/06/27 06:18:08;;;;;;;5.70;4.35;;;20.20;96.90;;;;;;5093665;28;20454;-76
2022/06/27 06:20:34;;;;;;;7.43;5.13;;;20.30;96.70;;;;;;5093471;28;20110;-76
2022/06/27 06:23:00;;;;;;;6.30;4.55;;;20.30;96.50;;;;;;5093710;28;20066;-75
2022/06/27 06:25:27;;;;;;;8.02;5.57;;;20.40;96.50;;;;;;5093356;28;20028;-75
2022/06/27 06:27:56;;;;;;;8.02;6.20;;;20.40;96.20;;;;;;5093624;28;20379;-76
2022/06/27 06:30:23;;;;;;;7.82;6.40;;;20.40;96.10;;;;;;5093173;28;20462;-76
2022/06/27 06:32:50;;;;;;;8.45;5.10;;;20.40;96.30;;;;;;5093408;28;20439;-75
2022/06/27 06:35:16;;;;;;;8.30;6.22;;;20.40;96.30;;;;;;5093715;28;20032;-76
2022/06/27 06:37:43;;;;;;;8.10;6.20;;;20.40;96.40;;;;;;5093416;28;20020;-76
2022/06/27 06:40:10;;;;;;;7.88;6.32;;;20.30;96.40;;;;;;5093411;28;20479;-75
2022/06/27 06:42:36;;;;;;;10.73;6.50;;;20.40;96.50;;;;;;5092844;28;20479;-76
2022/06/27 06:45:02;;;;;;;8.00;6.93;;;20.30;96.60;;;;;;5093459;28;20028;-76
2022/06/27 06:47:27;;;;;;;7.90;6.00;;;20.30;96.90;;;;;;5093613;28;20020;-76
2022/06/27 06:49:54;;;;;;;8.02;5.85;;;20.30;97.00;;;;;;5093061;28;20487;-76
2022/06/27 06:52:19;;;;;;;11.00;5.60;;;20.30;97.10;;;;;;5093213;28;20492;-75
2022/06/27 06:54:46;;;;;;;10.30;5.40;;;20.30;97.00;;;;;;5093379;28;20036;-76
2022/06/27 06:57:13;;;;;;;7.90;5.63;;;20.20;97.10;;;;;;5093264;28;20055;-76
2022/06/27 06:59:38;;;;;;;8.95;4.93;;;20.30;97.10;;;;;;5093151;28;20115;-76
2022/06/27 07:02:05;;;;;;;8.98;4.85;;;20.30;97.20;;;;;;5093330;28;20065;-76
2022/06/27 07:04:31;;;;;;;10.07;5.47;;;20.30;97.20;;;;;;5092884;28;20028;-76
2022/06/27 07:06:58;;;;;;;5.40;4.90;;;20.30;97.20;;;;;;5092633;28;20031;-76
2022/06/27 07:09:24;;;;;;;5.25;4.75;;;20.30;97.30;;;;;;5093309;28;20036;-76
2022/06/27 07:11:51;;;;;;;9.77;6.30;;;20.30;97.30;;;;;;5092982;28;20414;-76
2022/06/27 07:14:17;;;;;;;8.45;6.40;;;20.30;97.30;;;;;;5093184;28;20032;-76
2022/06/27 07:16:46;;;;;;;8.40;6.60;;;20.30;97.30;;;;;;5093203;28;20103;-76
2022/06/27 07:19:13;;;;;;;8.50;6.40;;;20.40;97.30;;;;;;5093358;28;20047;-76
2022/06/27 07:21:39;;;;;;;10.70;7.10;;;20.30;97.40;;;;;;5092880;28;20099;-75
2022/06/27 07:24:08;;;;;;;9.52;6.60;;;20.30;97.50;;;;;;5093051;28;20503;-74
2022/06/27 07:26:35;;;;;;;8.40;5.75;;;20.20;97.70;;;;;;5093040;28;20028;-75
2022/06/27 07:29:03;;;;;;;7.00;5.38;;;20.20;97.90;;;;;;5092927;28;20080;-75
2022/06/27 07:31:29;;;;;;;8.82;5.90;;;20.20;97.80;;;;;;5092792;28;20036;-74
2022/06/27 07:33:54;;;;;;;7.13;5.45;;;20.20;97.60;;;;;;5092906;28;20371;-75
2022/06/27 07:36:22;;;;;;;7.32;4.95;;;20.20;97.60;;;;;;5092890;28;20071;-74
2022/06/27 07:38:49;;;;;;;6.60;6.00;;;20.30;97.50;;;;;;5092771;28;20027;-74
2022/06/27 07:41:16;;;;;;;4.68;3.50;;;20.30;97.40;;;;;;5092591;28;20039;-75
2022/06/27 07:43:44;;;;;;;7.97;5.25;;;20.30;97.20;;;;;;5092938;28;20115;-74
2022/06/27 07:46:11;;;;;;;12.40;6.00;;;20.40;97.10;;;;;;5092417;28;20059;-75
2022/06/27 07:48:37;;;;;;;8.45;6.18;;;20.30;97.40;;;;;;5092324;28;20438;-75
2022/06/27 07:51:03;;;;;;;8.40;6.60;;;20.20;97.40;;;;;;5092630;28;20440;-75
2022/06/27 07:53:30;;;;;;;9.80;7.30;;;20.20;97.40;;;;;;5092630;28;20051;-75
2022/06/27 07:55:57;;;;;;;7.60;5.97;;;20.20;97.30;;;;;;5095382;28;20028;-75
2022/06/27 07:58:38;;;;;;;10.20;6.90;;;20.10;97.40;;;;;;5096194;28;20073;-75
2022/06/27 08:01:14;;;;;;;14.23;7.78;;;20.00;97.50;;;;;;5096189;28;20020;-75
2022/06/27 08:03:41;;;;;;;9.85;6.50;;;20.00;97.80;;;;;;5096310;28;20052;-76
2022/06/27 08:06:15;;;;;;;8.48;5.80;;;19.90;97.80;;;;;;5096350;28;20035;-76
2022/06/27 08:08:49;;;;;;;9.13;6.00;;;20.00;97.70;;;;;;5096207;28;20021;-75
2022/06/27 08:11:24;;;;;;;6.50;4.68;;;20.10;97.60;;;;;;5095596;28;20032;-75
2022/06/27 08:13:51;;;;;;;11.57;6.63;;;20.20;97.50;;;;;;5095917;28;20055;-76
2022/06/27 08:16:18;;;;;;;7.10;5.30;;;20.30;97.30;;;;;;5096134;28;20035;-76
2022/06/27 08:18:47;;;;;;;12.70;4.88;;;20.50;97.10;;;;;;5096311;28;20066;-76
2022/06/27 08:21:14;;;;;;;9.25;6.05;;;20.60;96.90;;;;;;5095898;28;20461;-75
2022/06/27 08:23:41;;;;;;;8.68;5.68;;;20.60;96.50;;;;;;5095938;28;20020;-76
2022/06/27 08:26:08;;;;;;;6.88;4.95;;;20.70;96.10;;;;;;5095815;28;20024;-76
2022/06/27 08:28:37;;;;;;;7.53;4.03;;;20.70;95.70;;;;;;5095695;28;20526;-76
2022/06/27 08:31:05;;;;;;;7.75;4.70;;;20.70;95.30;;;;;;5095448;28;20479;-76
2022/06/27 08:33:31;;;;;;;6.45;4.43;;;20.70;95.30;;;;;;5095889;28;20074;-75
2022/06/27 08:35:58;;;;;;;6.43;4.32;;;20.70;95.20;;;;;;5095453;28;20457;-75
2022/06/27 08:38:25;;;;;;;9.70;5.13;;;20.80;95.30;;;;;;5095224;28;20101;-75
2022/06/27 08:40:53;;;;;;;7.53;4.88;;;20.80;95.30;;;;;;5095488;28;20486;-76
2022/06/27 08:43:19;;;;;;;5.75;4.32;;;20.80;95.10;;;;;;5095316;28;20035;-75
2022/06/27 08:45:50;;;;;;;9.18;5.30;;;20.80;94.90;;;;;;5095744;28;20020;-76
2022/06/27 08:48:16;;;;;;;10.43;5.85;;;20.80;94.90;;;;;;5095213;28;20039;-75
2022/06/27 08:50:43;;;;;;;5.90;4.32;;;20.80;95.30;;;;;;5095228;28;20036;-75
2022/06/27 08:53:11;;;;;;;7.05;4.63;;;20.80;95.40;;;;;;5094485;28;20024;-76
2022/06/27 08:55:36;;;;;;;5.15;3.70;;;20.90;94.50;;;;;;5094667;28;20412;-76
2022/06/27 08:58:06;;;;;;;8.60;3.65;;;20.90;94.20;;;;;;5094954;28;20103;-75
2022/06/27 09:00:33;;;;;;;6.43;3.90;;;21.00;94.20;;;;;;5095070;28;20028;-76
2022/06/27 09:02:59;;;;;;;6.80;3.97;;;21.10;94.30;;;;;;5095283;28;20031;-75
2022/06/27 09:05:27;;;;;;;8.73;4.13;;;21.10;94.10;;;;;;5094931;28;20020;-76
2022/06/27 09:08:04;;;;;;;7.32;3.50;;;21.20;93.70;;;;;;5095439;28;20101;-76
2022/06/27 09:10:39;;;;;;;6.75;3.30;;;21.20;93.50;;;;;;5094758;28;20510;-76
2022/06/27 09:13:06;;;;;;;6.35;3.55;;;21.20;93.40;;;;;;5095049;28;20020;-76
2022/06/27 09:15:52;;;;;;;6.05;3.92;;;21.20;93.30;;;;;;5094951;28;20024;-76
2022/06/27 09:18:21;;;;;;;5.53;3.17;;;21.30;93.00;;;;;;5094579;28;20035;-76
2022/06/27 09:21:00;;;;;;;4.85;3.13;;;21.30;92.90;;;;;;5094852;28;20085;-76
2022/06/27 09:23:47;;;;;;;6.00;2.88;;;21.30;93.10;;;;;;5094971;28;20043;-76
2022/06/27 09:26:16;;;;;;;5.03;3.28;;;21.30;93.00;;;;;;5094675;28;20055;-76
2022/06/27 09:28:57;;;;;;;6.53;3.40;;;21.40;92.60;;;;;;5094579;28;20023;-76
2022/06/27 09:31:28;;;;;;;5.57;3.28;;;21.40;92.40;;;;;;5094775;28;20028;-76
2022/06/27 09:34:18;;;;;;;4.20;2.88;;;21.40;92.50;;;;;;5094523;28;20027;-76
2022/06/27 09:36:52;;;;;;;4.97;3.25;;;21.50;92.60;;;;;;5094326;28;20052;-76
2022/06/27 09:39:29;;;;;;;5.75;2.60;;;21.50;92.40;;;;;;5094425;28;20020;-76
2022/06/27 09:41:59;;;;;;;7.93;3.63;;;21.50;92.10;;;;;;5094717;28;20024;-75
2022/06/27 09:44:31;;;;;;;6.03;2.85;;;21.50;92.40;;;;;;5094515;28;20414;-75
2022/06/27 09:47:19;;;;;;;8.23;3.85;;;21.40;92.30;;;;;;5094238;28;20057;-75
2022/06/27 09:49:48;;;;;;;5.55;3.00;;;21.40;92.30;;;;;;5093996;28;20047;-75
2022/06/27 09:52:17;;;;;;;5.80;2.70;;;21.40;92.20;;;;;;5094281;28;20016;-76
2022/06/27 09:54:45;;;;;;;5.15;2.40;;;21.40;91.80;;;;;;5094054;28;20521;-75
2022/06/27 09:57:12;;;;;;;4.78;2.05;;;21.50;91.60;;;;;;5094201;28;20028;-75
2022/06/27 09:59:39;;;;;;;7.63;1.85;;;21.50;91.50;;;;;;5093365;28;20426;-75
2022/06/27 10:02:06;;;;;;;6.05;2.22;;;21.50;91.40;;;;;;5093747;28;20518;-75
2022/06/27 10:04:32;;;;;;;4.07;1.90;;;21.50;91.40;;;;;;5094006;28;20136;-75
2022/06/27 10:07:02;;;;;;;6.28;2.58;;;21.50;91.50;;;;;;5093886;28;20031;-75
2022/06/27 10:09:29;;;;;;;7.82;2.70;;;21.50;90.90;;;;;;5093736;28;20032;-75
2022/06/27 10:12:19;;;;;;;4.72;2.10;;;21.50;90.60;;;;;;5093310;28;20499;-75
2022/06/27 10:14:45;;;;;;;5.65;2.47;;;21.50;90.20;;;;;;5093196;28;20067;-75
2022/06/27 10:17:14;;;;;;;5.00;1.58;;;21.60;88.70;;;;;;5093034;28;20052;-75
2022/06/27 10:20:12;;;;;;;6.85;4.30;;;21.60;89.40;;;;;;5093341;28;20058;-75
2022/06/27 10:22:38;;;;;;;6.63;3.67;;;21.60;90.00;;;;;;5093232;28;20554;-76
2022/06/27 10:25:28;;;;;;;7.65;2.97;;;21.60;90.40;;;;;;5093416;28;20141;-76
2022/06/27 10:28:12;;;;;;;7.00;2.65;;;21.60;90.50;;;;;;5093707;28;20070;-76
2022/06/27 10:30:55;;;;;;;5.65;3.45;;;21.60;90.60;;;;;;5093229;28;20035;-76
2022/06/27 10:33:26;;;;;;;5.40;3.72;;;21.70;90.60;;;;;;5093620;28;20023;-75
2022/06/27 10:35:57;;;;;;;6.10;3.58;;;21.70;90.40;;;;;;5093609;28;20039;-75
2022/06/27 10:38:32;;;;;;;6.97;3.53;;;21.70;90.40;;;;;;5093636;28;20101;-75
2022/06/27 10:41:05;;;;;;;6.53;3.90;;;21.80;90.30;;;;;;5093794;28;20280;-75
2022/06/27 10:43:38;;;;;;;8.18;3.60;;;21.90;90.80;;;;;;5093339;28;20048;-75
2022/06/27 10:46:09;;;;;;;7.28;3.63;;;21.90;90.70;;;;;;5093591;28;20104;-76
2022/06/27 10:48:56;;;;;;;7.88;2.92;;;21.90;90.20;;;;;;5093233;28;20048;-75
2022/06/27 10:51:30;;;;;;;4.20;2.53;;;22.00;90.20;;;;;;5092790;28;20091;-75
2022/06/27 10:53:58;;;;;;;9.80;2.60;;;22.10;89.90;;;;;;5093245;28;20035;-75
2022/06/27 10:56:31;;;;;;;3.42;2.30;;;22.10;88.30;;;;;;5093554;28;20424;-75
2022/06/27 10:58:58;;;;;;;5.95;2.15;;;22.20;87.80;;;;;;5093108;28;20020;-75
2022/06/27 11:01:24;;;;;;;4.93;2.30;;;22.20;87.20;;;;;;5093342;28;20028;-75
2022/06/27 11:03:50;;;;;;;3.60;1.73;;;22.20;86.60;;;;;;5093423;28;20073;-75
2022/06/27 11:06:16;;;;;;;4.30;2.38;;;22.20;84.90;;;;;;5093327;28;20124;-76
2022/06/27 11:08:47;;;;;;;8.73;2.28;;;22.20;84.90;;;;;;5093448;28;20506;-75
2022/06/27 11:11:40;;;;;;;4.93;1.77;;;22.20;84.30;;;;;;5093212;28;20383;-75
2022/06/27 11:14:08;;;;;;;5.20;2.20;;;22.20;84.10;;;;;;5090325;28;20032;-76
2022/06/27 11:16:35;;;;;;;5.22;2.30;;;22.30;83.90;;;;;;5093001;28;20471;-75
2022/06/27 11:20:04;;;;;;;4.78;2.75;;;22.20;84.30;;;;;;5092763;28;20035;-75
2022/06/27 11:21:50;;;;;;;4.63;2.17;;;22.30;84.70;;;;;;5092755;28;20352;-75
2022/06/27 11:24:16;;;;;;;5.78;2.38;;;22.30;85.40;;;;;;5093052;28;20034;-76
2022/06/27 11:26:47;;;;;;;6.45;2.20;;;22.20;85.00;;;;;;5093035;28;20043;-75
2022/06/27 11:32:08;;;;;;;4.93;1.55;;;22.20;82.90;;;;;;5097202;28;20031;-75
2022/06/27 11:34:48;;;;;;;4.40;1.48;;;22.30;82.90;;;;;;5097156;28;20044;-75
2022/06/27 11:37:16;;;;;;;4.03;1.38;;;22.30;82.30;;;;;;5096734;28;20107;-75
2022/06/27 11:39:56;;;;;;;3.38;1.33;;;22.20;82.30;;;;;;5096725;28;20073;-75
2022/06/27 11:42:31;;;;;;;5.63;1.75;;;22.20;82.10;;;;;;5096943;28;20020;-75
2022/06/27 11:45:13;;;;;;;4.47;1.88;;;22.20;81.80;;;;;;5095887;28;20389;-75
2022/06/27 11:47:42;;;;;;;6.53;1.95;;;22.10;82.60;;;;;;5096044;28;20451;-74
2022/06/27 11:50:12;;;;;;;8.10;2.67;;;22.00;83.00;;;;;;5096355;28;20090;-74
2022/06/27 11:52:40;;;;;;;5.45;3.08;;;22.00;83.80;;;;;;5096386;28;20020;-76
2022/06/27 11:55:14;;;;;;;8.20;2.55;;;22.00;83.90;;;;;;5096893;28;20364;-76
2022/06/27 11:57:47;;;;;;;4.00;1.70;;;22.00;84.10;;;;;;5096406;28;20051;-76
2022/06/27 12:00:18;;;;;;;6.00;2.03;;;22.00;83.90;;;;;;5096348;28;20467;-76
2022/06/27 12:02:44;;;;;;;6.18;1.80;;;22.00;83.70;;;;;;5096212;28;20040;-75
2022/06/27 12:05:12;;;;;;;4.90;1.55;;;22.10;84.50;;;;;;5096527;28;20073;-74
2022/06/27 12:07:55;;;;;;;4.97;1.60;;;22.00;85.30;;;;;;5096362;28;20115;-74
2022/06/27 12:10:44;;;;;;;4.20;1.80;;;22.10;86.00;;;;;;5096339;28;20040;-75
2022/06/27 12:13:17;;;;;;;4.47;1.92;;;22.10;85.70;;;;;;5096276;28;20024;-74
2022/06/27 12:15:46;;;;;;;4.75;1.58;;;22.20;85.70;;;;;;5096391;28;20116;-74
2022/06/27 12:18:13;;;;;;;6.22;2.47;;;22.20;85.40;;;;;;5096384;28;20024;-74
2022/06/27 12:20:40;;;;;;;7.45;1.90;;;22.20;85.50;;;;;;5095905;28;20020;-74
2022/06/27 12:23:06;;;;;;;5.07;1.77;;;22.30;84.90;;;;;;5095943;28;20089;-75
2022/06/27 12:25:35;;;;;;;6.03;2.35;;;22.40;84.40;;;;;;5096248;28;20459;-74
2022/06/27 12:28:02;;;;;;;7.70;2.80;;;22.40;85.00;;;;;;5096140;28;20051;-74
2022/06/27 12:30:28;;;;;;;7.32;3.00;;;22.50;83.90;;;;;;5095469;28;20060;-74
2022/06/27 12:32:53;;;;;;;4.88;2.10;;;22.50;83.50;;;;;;5095938;28;20051;-74
2022/06/27 12:35:19;;;;;;;6.00;2.65;;;22.50;83.70;;;;;;5095730;28;20053;-74
2022/06/27 12:37:45;;;;;;;5.32;2.10;;;22.50;83.60;;;;;;5095928;28;20027;-74
2022/06/27 12:40:11;;;;;;;4.40;1.80;;;22.50;82.90;;;;;;5095240;28;20024;-74
2022/06/27 12:42:37;;;;;;;5.47;2.05;;;22.50;81.50;;;;;;5095613;28;20464;-74
2022/06/27 12:45:03;;;;;;;3.47;1.80;;;22.50;81.30;;;;;;5095873;28;20383;-74
2022/06/27 12:47:29;;;;;;;5.30;1.92;;;22.50;81.60;;;;;;5095869;28;20027;-74
2022/06/27 12:49:55;;;;;;;5.28;2.22;;;22.50;82.00;;;;;;5094992;28;20066;-74
2022/06/27 12:52:20;;;;;;;5.97;1.90;;;22.40;82.30;;;;;;5095553;28;20111;-74
2022/06/27 12:54:46;;;;;;;4.97;2.17;;;22.40;82.80;;;;;;5095252;28;20054;-75
2022/06/27 12:57:15;;;;;;;5.50;1.70;;;22.40;83.10;;;;;;5095287;28;20024;-75